www.cux-wetter.de
Wetterdaten: Woche 06.01.14 - 12.01.14 (KW2)
Datum Zeit Temp. A. Feuchte A. Luftdruck Regen Wind Richtung Sonnenschein Solar Taupunkt Windchill Windben
06.01.2014 00:00 4,9 C 84 % 1005,5 hPa 0,0 l/m 17,8 km/h (3 Bft) S-SW 0,00 h 0 W/m 2,3 C -2,3 C 17,8 km/h (3 Bft)
06.01.2014 01:00 4,4 C 84 % 1004,8 hPa 0,0 l/m 21,3 km/h (4 Bft) S-SW 0,00 h 0 W/m 2,0 C -4,3 C 21,3 km/h (4 Bft)
06.01.2014 02:00 4,3 C 83 % 1003,8 hPa 0,0 l/m 24,1 km/h (4 Bft) SW 0,00 h 0 W/m 1,7 C -5,5 C 24,1 km/h (4 Bft)
06.01.2014 03:00 4,6 C 82 % 1003,0 hPa 0,0 l/m 25,4 km/h (4 Bft) S-SW 0,00 h 0 W/m 1,8 C -5,6 C 25,4 km/h (4 Bft)
06.01.2014 04:00 4,6 C 82 % 1001,8 hPa 0,3 l/m 28,5 km/h (5 Bft) S-SW 0,00 h 0 W/m 1,9 C -6,4 C 28,5 km/h (5 Bft)
06.01.2014 05:00 4,7 C 84 % 1000,8 hPa 0,0 l/m 26,8 km/h (4 Bft) SW 0,00 h 0 W/m 2,1 C -5,9 C 26,8 km/h (4 Bft)
06.01.2014 06:00 4,9 C 86 % 1000,3 hPa 0,3 l/m 30,1 km/h (5 Bft) SW 0,00 h 0 W/m 2,7 C -6,5 C 30,1 km/h (5 Bft)
06.01.2014 07:00 5,5 C 88 % 999,5 hPa 0,6 l/m 31,4 km/h (5 Bft) SW 0,00 h 0 W/m 3,6 C -6,0 C 31,4 km/h (5 Bft)
06.01.2014 08:00 6,3 C 89 % 999,5 hPa 0,3 l/m 36,2 km/h (5 Bft) SW 0,00 h 0 W/m 4,6 C -5,9 C 36,2 km/h (5 Bft)
06.01.2014 09:00 7,1 C 89 % 999,5 hPa 0,3 l/m 31,8 km/h (5 Bft) W-SW 0,00 h 0 W/m 5,4 C -3,9 C 31,8 km/h (5 Bft)
06.01.2014 10:00 7,8 C 90 % 999,5 hPa 1,8 l/m 33,7 km/h (5 Bft) W-SW 0,00 h 0 W/m 6,2 C -3,3 C 33,7 km/h (5 Bft)
06.01.2014 11:00 8,7 C 90 % 1000,5 hPa 0,0 l/m 33,3 km/h (5 Bft) W 0,00 h 0 W/m 7,2 C -1,8 C 33,3 km/h (5 Bft)
06.01.2014 12:00 9,6 C 91 % 1000,5 hPa 0,0 l/m 31,0 km/h (5 Bft) W 0,00 h 0 W/m 8,2 C -0,1 C 31,0 km/h (5 Bft)
06.01.2014 13:00 10,5 C 90 % 1000,5 hPa 0,0 l/m 33,1 km/h (5 Bft) W 0,00 h 0 W/m 8,9 C 0,7 C 33,1 km/h (5 Bft)
06.01.2014 14:00 10,9 C 88 % 1000,5 hPa 0,0 l/m 32,6 km/h (5 Bft) W-SW 0,00 h 0 W/m 9,0 C 1,5 C 32,6 km/h (5 Bft)
06.01.2014 15:00 11,1 C 88 % 1000,5 hPa 0,0 l/m 26,0 km/h (4 Bft) W-SW 0,00 h 0 W/m 9,2 C 3,1 C 26,0 km/h (4 Bft)
06.01.2014 16:00 11,1 C 88 % 1000,5 hPa 0,0 l/m 29,9 km/h (5 Bft) W-SW 0,00 h 0 W/m 9,1 C 2,2 C 29,9 km/h (5 Bft)
06.01.2014 17:00 11,1 C 87 % 1000,5 hPa 0,0 l/m 27,6 km/h (5 Bft) SW 0,00 h 0 W/m 8,9 C 2,7 C 27,6 km/h (5 Bft)
06.01.2014 18:00 11,4 C 86 % 1000,5 hPa 0,0 l/m 30,4 km/h (5 Bft) SW 0,00 h 0 W/m 9,1 C 2,6 C 30,4 km/h (5 Bft)
06.01.2014 19:00 11,1 C 87 % 1000,3 hPa 0,6 l/m 28,1 km/h (5 Bft) SW 0,00 h 0 W/m 9,0 C 2,7 C 28,1 km/h (5 Bft)
06.01.2014 20:00 10,8 C 88 % 999,8 hPa 0,0 l/m 26,4 km/h (4 Bft) SW 0,00 h 0 W/m 8,9 C 2,6 C 26,4 km/h (4 Bft)
06.01.2014 21:00 10,8 C 88 % 999,5 hPa 0,3 l/m 26,2 km/h (4 Bft) W-SW 0,00 h 0 W/m 8,9 C 2,7 C 26,2 km/h (4 Bft)
06.01.2014 22:00 10,9 C 88 % 999,8 hPa 1,2 l/m 25,1 km/h (4 Bft) SW 0,00 h 0 W/m 9,0 C 3,2 C 25,1 km/h (4 Bft)
06.01.2014 23:00 10,3 C 88 % 1000,0 hPa 2,7 l/m 28,9 km/h (5 Bft) W 0,00 h 0 W/m 8,4 C 1,4 C 28,9 km/h (5 Bft)
07.01.2014 00:00 9,7 C 89 % 1001,0 hPa 1,2 l/m 26,9 km/h (4 Bft) W 0,00 h 0 W/m 8,0 C 0,9 C 26,9 km/h (4 Bft)
07.01.2014 01:00 9,3 C 89 % 1001,5 hPa 0,0 l/m 22,8 km/h (4 Bft) W 0,00 h 0 W/m 7,6 C 1,5 C 22,8 km/h (4 Bft)
07.01.2014 02:00 8,9 C 88 % 1001,8 hPa 0,0 l/m 30,2 km/h (5 Bft) W 0,00 h 0 W/m 7,1 C -0,9 C 30,2 km/h (5 Bft)
07.01.2014 03:00 9,0 C 88 % 1002,5 hPa 0,0 l/m 33,6 km/h (5 Bft) W 0,00 h 0 W/m 7,1 C -1,4 C 33,6 km/h (5 Bft)
07.01.2014 04:00 9,2 C 87 % 1002,5 hPa 0,0 l/m 33,7 km/h (5 Bft) W 0,00 h 0 W/m 7,1 C -1,3 C 33,7 km/h (5 Bft)
07.01.2014 05:00 9,4 C 86 % 1003,3 hPa 0,0 l/m 36,5 km/h (5 Bft) W 0,00 h 0 W/m 7,2 C -1,4 C 36,5 km/h (5 Bft)
07.01.2014 06:00 9,5 C 85 % 1003,8 hPa 0,0 l/m 34,8 km/h (5 Bft) W 0,00 h 0 W/m 7,0 C -1,0 C 34,8 km/h (5 Bft)
07.01.2014 07:00 9,5 C 84 % 1004,5 hPa 0,0 l/m 36,5 km/h (5 Bft) W 0,00 h 0 W/m 6,9 C -1,3 C 36,5 km/h (5 Bft)
07.01.2014 08:00 9,7 C 84 % 1005,5 hPa 0,0 l/m 35,8 km/h (5 Bft) W 0,00 h 0 W/m 7,1 C -0,9 C 35,8 km/h (5 Bft)
07.01.2014 09:00 9,7 C 83 % 1005,8 hPa 0,0 l/m 33,8 km/h (5 Bft) W 0,00 h 0 W/m 6,9 C -0,6 C 33,8 km/h (5 Bft)
07.01.2014 10:00 10,0 C 82 % 1006,5 hPa 0,0 l/m 36,4 km/h (5 Bft) W 0,00 h 0 W/m 7,1 C -0,5 C 36,4 km/h (5 Bft)
07.01.2014 11:00 10,3 C 82 % 1006,5 hPa 0,0 l/m 39,9 km/h (6 Bft) W 0,00 h 0 W/m 7,3 C -0,6 C 39,9 km/h (6 Bft)
07.01.2014 12:00 11,1 C 80 % 1006,5 hPa 0,0 l/m 40,4 km/h (6 Bft) W 0,00 h 0 W/m 7,7 C 0,5 C 40,4 km/h (6 Bft)
07.01.2014 13:00 11,1 C 78 % 1006,5 hPa 0,0 l/m 41,8 km/h (6 Bft) W 0,00 h 0 W/m 7,4 C 0,3 C 41,8 km/h (6 Bft)
07.01.2014 14:00 10,9 C 78 % 1006,5 hPa 0,0 l/m 37,5 km/h (5 Bft) W 0,00 h 0 W/m 7,2 C 0,6 C 37,5 km/h (5 Bft)
07.01.2014 15:00 10,9 C 77 % 1006,5 hPa 0,0 l/m 39,5 km/h (6 Bft) W 0,00 h 0 W/m 7,0 C 0,3 C 39,5 km/h (6 Bft)
07.01.2014 16:00 10,7 C 78 % 1006,5 hPa 0,0 l/m 29,3 km/h (5 Bft) W 0,00 h 0 W/m 7,0 C 1,8 C 29,3 km/h (5 Bft)
07.01.2014 17:00 10,6 C 78 % 1006,5 hPa 0,0 l/m 30,0 km/h (5 Bft) W 0,00 h 0 W/m 7,0 C 1,6 C 30,0 km/h (5 Bft)
07.01.2014 18:00 10,7 C 78 % 1006,5 hPa 0,0 l/m 32,1 km/h (5 Bft) W 0,00 h 0 W/m 7,0 C 1,3 C 32,1 km/h (5 Bft)
07.01.2014 19:00 9,1 C 84 % 1007,5 hPa 1,5 l/m 47,5 km/h (6 Bft) W-NW 0,00 h 0 W/m 6,5 C -3,0 C 47,5 km/h (6 Bft)
07.01.2014 20:00 8,9 C 87 % 1007,3 hPa 0,0 l/m 35,5 km/h (5 Bft) W-NW 0,00 h 0 W/m 6,8 C -1,9 C 35,5 km/h (5 Bft)
07.01.2014 21:00 9,4 C 86 % 1007,5 hPa 0,0 l/m 31,5 km/h (5 Bft) W 0,00 h 0 W/m 7,1 C -0,4 C 31,5 km/h (5 Bft)
07.01.2014 22:00 9,6 C 84 % 1007,5 hPa 0,0 l/m 31,5 km/h (5 Bft) W 0,00 h 0 W/m 7,1 C -0,2 C 31,5 km/h (5 Bft)
07.01.2014 23:00 9,6 C 84 % 1007,5 hPa 0,0 l/m 31,8 km/h (5 Bft) W 0,00 h 0 W/m 7,0 C -0,3 C 31,8 km/h (5 Bft)
08.01.2014 00:00 9,5 C 84 % 1008,5 hPa 0,0 l/m 32,2 km/h (5 Bft) W-NW 0,00 h 0 W/m 6,8 C -0,5 C 32,2 km/h (5 Bft)
08.01.2014 01:00 9,5 C 83 % 1008,5 hPa 0,0 l/m 32,3 km/h (5 Bft) W 0,00 h 0 W/m 6,8 C -0,5 C 32,3 km/h (5 Bft)
08.01.2014 02:00 9,4 C 84 % 1008,5 hPa 0,0 l/m 32,7 km/h (5 Bft) W 0,00 h 0 W/m 6,9 C -0,7 C 32,7 km/h (5 Bft)
08.01.2014 03:00 9,4 C 85 % 1008,5 hPa 0,0 l/m 30,0 km/h (5 Bft) W 0,00 h 0 W/m 6,9 C -0,2 C 30,0 km/h (5 Bft)
08.01.2014 04:00 9,3 C 85 % 1008,0 hPa 0,0 l/m 25,2 km/h (4 Bft) W 0,00 h 0 W/m 6,9 C 0,9 C 25,2 km/h (4 Bft)
08.01.2014 05:00 9,3 C 86 % 1007,5 hPa 0,0 l/m 22,3 km/h (4 Bft) W 0,00 h 0 W/m 7,1 C 1,7 C 22,3 km/h (4 Bft)
08.01.2014 06:00 9,4 C 86 % 1007,5 hPa 0,0 l/m 21,5 km/h (4 Bft) W 0,00 h 0 W/m 7,2 C 2,1 C 21,5 km/h (4 Bft)
08.01.2014 07:00 9,1 C 88 % 1007,5 hPa 0,6 l/m 25,3 km/h (4 Bft) W 0,00 h 0 W/m 7,2 C 0,7 C 25,3 km/h (4 Bft)
08.01.2014 08:00 8,8 C 88 % 1008,8 hPa 0,3 l/m 25,3 km/h (4 Bft) W 0,00 h 0 W/m 6,9 C 0,2 C 25,3 km/h (4 Bft)
08.01.2014 09:00 8,6 C 88 % 1010,0 hPa 0,0 l/m 36,0 km/h (5 Bft) W 0,00 h 0 W/m 6,6 C -2,5 C 36,0 km/h (5 Bft)
08.01.2014 10:00 8,7 C 87 % 1010,5 hPa 0,0 l/m 38,1 km/h (6 Bft) W 0,00 h 0 W/m 6,7 C -2,7 C 38,1 km/h (6 Bft)
08.01.2014 11:00 9,0 C 87 % 1011,5 hPa 0,0 l/m 39,0 km/h (6 Bft) W 0,00 h 0 W/m 6,9 C -2,4 C 39,0 km/h (6 Bft)
08.01.2014 12:00 9,4 C 86 % 1011,5 hPa 0,0 l/m 39,1 km/h (6 Bft) W-NW 0,00 h 0 W/m 7,1 C -1,9 C 39,1 km/h (6 Bft)
08.01.2014 13:00 9,6 C 84 % 1011,5 hPa 0,0 l/m 41,0 km/h (6 Bft) W-NW 0,00 h 0 W/m 7,0 C -1,8 C 41,0 km/h (6 Bft)
08.01.2014 14:00 9,5 C 83 % 1011,5 hPa 0,0 l/m 39,0 km/h (6 Bft) W 0,00 h 0 W/m 6,7 C -1,7 C 39,0 km/h (6 Bft)
08.01.2014 15:00 9,3 C 84 % 1011,5 hPa 0,0 l/m 37,4 km/h (5 Bft) W 0,00 h 0 W/m 6,8 C -1,7 C 37,4 km/h (5 Bft)
08.01.2014 16:00 9,3 C 83 % 1011,5 hPa 0,0 l/m 36,8 km/h (5 Bft) W-NW 0,00 h 0 W/m 6,6 C -1,6 C 36,8 km/h (5 Bft)
08.01.2014 17:00 9,3 C 84 % 1012,5 hPa 0,0 l/m 30,9 km/h (5 Bft) W 0,00 h 0 W/m 6,6 C -0,5 C 30,9 km/h (5 Bft)
08.01.2014 18:00 9,1 C 85 % 1012,5 hPa 0,0 l/m 29,0 km/h (5 Bft) W 0,00 h 0 W/m 6,7 C -0,3 C 29,0 km/h (5 Bft)
08.01.2014 19:00 8,9 C 86 % 1012,8 hPa 0,0 l/m 24,6 km/h (4 Bft) W 0,00 h 0 W/m 6,7 C 0,5 C 24,6 km/h (4 Bft)
08.01.2014 20:00 9,0 C 85 % 1013,5 hPa 0,0 l/m 27,4 km/h (5 Bft) W 0,00 h 0 W/m 6,6 C -0,1 C 27,4 km/h (5 Bft)
08.01.2014 21:00 9,1 C 85 % 1013,5 hPa 0,0 l/m 29,9 km/h (5 Bft) W 0,00 h 0 W/m 6,7 C -0,6 C 29,9 km/h (5 Bft)
08.01.2014 22:00 9,0 C 85 % 1013,5 hPa 0,0 l/m 26,4 km/h (4 Bft) W 0,00 h 0 W/m 6,7 C 0,2 C 26,4 km/h (4 Bft)
08.01.2014 23:00 9,0 C 85 % 1012,8 hPa 0,0 l/m 26,8 km/h (4 Bft) W 0,00 h 0 W/m 6,6 C 0,0 C 26,8 km/h (4 Bft)
09.01.2014 00:00 8,6 C 85 % 1011,8 hPa 0,0 l/m 22,3 km/h (4 Bft) W 0,00 h 0 W/m 6,3 C 0,8 C 22,3 km/h (4 Bft)
09.01.2014 01:00 8,3 C 86 % 1011,3 hPa 0,0 l/m 20,7 km/h (4 Bft) W 0,00 h 0 W/m 6,1 C 1,0 C 20,7 km/h (4 Bft)
09.01.2014 02:00 8,5 C 86 % 1010,3 hPa 0,0 l/m 13,1 km/h (3 Bft) S-SW 0,00 h 0 W/m 6,3 C 4,2 C 13,1 km/h (3 Bft)
09.01.2014 03:00 8,3 C 86 % 1009,0 hPa 0,0 l/m 14,0 km/h (3 Bft) S 0,00 h 0 W/m 6,0 C 3,5 C 14,0 km/h (3 Bft)
09.01.2014 04:00 7,8 C 87 % 1007,0 hPa 0,0 l/m 15,9 km/h (3 Bft) S-SW 0,00 h 0 W/m 5,8 C 2,1 C 15,9 km/h (3 Bft)
09.01.2014 05:00 7,7 C 87 % 1005,3 hPa 0,0 l/m 18,6 km/h (3 Bft) S-SW 0,00 h 0 W/m 5,7 C 0,9 C 18,6 km/h (3 Bft)
09.01.2014 06:00 8,0 C 88 % 1003,8 hPa 0,9 l/m 19,1 km/h (3 Bft) S-SW 0,00 h 0 W/m 6,2 C 1,0 C 19,1 km/h (3 Bft)
09.01.2014 07:00 8,8 C 90 % 1002,0 hPa 1,5 l/m 30,8 km/h (5 Bft) W-SW 0,00 h 0 W/m 7,3 C -1,1 C 30,8 km/h (5 Bft)
09.01.2014 08:00 9,3 C 90 % 1000,8 hPa 1,2 l/m 29,9 km/h (5 Bft) W-SW 0,00 h 0 W/m 7,8 C -0,3 C 29,9 km/h (5 Bft)
09.01.2014 09:00 9,7 C 91 % 999,3 hPa 0,9 l/m 29,5 km/h (5 Bft) W-SW 0,00 h 0 W/m 8,3 C 0,3 C 29,5 km/h (5 Bft)
09.01.2014 10:00 10,0 C 91 % 998,0 hPa 0,3 l/m 28,4 km/h (5 Bft) W-SW 0,00 h 0 W/m 8,6 C 1,1 C 28,4 km/h (5 Bft)
09.01.2014 11:00 10,3 C 91 % 997,3 hPa 0,0 l/m 35,2 km/h (5 Bft) W 0,00 h 0 W/m 8,9 C 0,1 C 35,2 km/h (5 Bft)
09.01.2014 12:00 10,6 C 90 % 996,0 hPa 0,0 l/m 36,3 km/h (5 Bft) W 0,00 h 0 W/m 9,0 C 0,3 C 36,3 km/h (5 Bft)
09.01.2014 13:00 10,8 C 88 % 994,8 hPa 0,0 l/m 43,1 km/h (6 Bft) W 0,00 h 0 W/m 8,8 C -0,3 C 43,1 km/h (6 Bft)
09.01.2014 14:00 10,4 C 85 % 994,0 hPa 0,3 l/m 51,0 km/h (7 Bft) W 0,00 h 0 W/m 8,1 C -1,7 C 51,0 km/h (7 Bft)
09.01.2014 15:00 10,0 C 85 % 993,5 hPa 0,0 l/m 45,1 km/h (6 Bft) W 0,00 h 0 W/m 7,5 C -1,8 C 45,1 km/h (6 Bft)
09.01.2014 16:00 9,4 C 83 % 993,5 hPa 0,3 l/m 46,3 km/h (6 Bft) W 0,00 h 0 W/m 6,7 C -2,8 C 46,3 km/h (6 Bft)
09.01.2014 17:00 8,7 C 85 % 994,1 hPa 0,0 l/m 45,4 km/h (6 Bft) W-NW 0,00 h 0 W/m 6,3 C -3,8 C 45,4 km/h (6 Bft)
09.01.2014 18:00 7,5 C 87 % 995,8 hPa 0,0 l/m 43,5 km/h (6 Bft) NW 0,00 h 0 W/m 5,4 C -5,3 C 43,5 km/h (6 Bft)
09.01.2014 19:00 7,5 C 86 % 996,8 hPa 0,0 l/m 39,8 km/h (6 Bft) NW 0,00 h 0 W/m 5,3 C -4,7 C 39,8 km/h (6 Bft)
09.01.2014 20:00 7,4 C 85 % 997,8 hPa 0,0 l/m 39,0 km/h (6 Bft) NW 0,00 h 0 W/m 5,1 C -4,8 C 39,0 km/h (6 Bft)
09.01.2014 21:00 7,7 C 86 % 998,8 hPa 0,0 l/m 39,3 km/h (6 Bft) NW 0,00 h 0 W/m 5,5 C -4,4 C 39,3 km/h (6 Bft)
09.01.2014 22:00 7,1 C 87 % 1000,0 hPa 0,9 l/m 34,8 km/h (5 Bft) NW 0,00 h 0 W/m 5,2 C -4,4 C 34,8 km/h (5 Bft)
09.01.2014 23:00 7,3 C 88 % 1000,8 hPa 0,0 l/m 38,2 km/h (6 Bft) NW 0,00 h 0 W/m 5,4 C -4,8 C 38,2 km/h (6 Bft)
10.01.2014 00:00 7,1 C 87 % 1001,5 hPa 0,3 l/m 36,5 km/h (5 Bft) NW 0,00 h 0 W/m 5,1 C -4,7 C 36,5 km/h (5 Bft)
10.01.2014 01:00 7,2 C 87 % 1002,3 hPa 0,0 l/m 39,9 km/h (6 Bft) NW 0,00 h 0 W/m 5,1 C -5,2 C 39,9 km/h (6 Bft)
10.01.2014 02:00 7,1 C 87 % 1003,0 hPa 0,3 l/m 37,7 km/h (5 Bft) NW 0,00 h 0 W/m 5,0 C -5,0 C 37,7 km/h (5 Bft)
10.01.2014 03:00 7,1 C 84 % 1003,5 hPa 0,0 l/m 36,5 km/h (5 Bft) NW 0,00 h 0 W/m 4,6 C -4,7 C 36,5 km/h (5 Bft)
10.01.2014 04:00 7,2 C 85 % 1004,2 hPa 0,0 l/m 36,2 km/h (5 Bft) NW 0,00 h 0 W/m 4,9 C -4,5 C 36,2 km/h (5 Bft)
10.01.2014 05:00 7,4 C 86 % 1004,5 hPa 0,0 l/m 36,6 km/h (5 Bft) NW 0,00 h 0 W/m 5,2 C -4,3 C 36,6 km/h (5 Bft)
10.01.2014 06:00 7,4 C 86 % 1005,0 hPa 0,0 l/m 32,5 km/h (5 Bft) NW 0,00 h 0 W/m 5,2 C -3,5 C 32,5 km/h (5 Bft)
10.01.2014 07:00 7,3 C 85 % 1005,8 hPa 0,0 l/m 40,6 km/h (6 Bft) NW 0,00 h 0 W/m 4,9 C -5,2 C 40,6 km/h (6 Bft)
10.01.2014 08:00 7,2 C 85 % 1006,8 hPa 0,3 l/m 36,5 km/h (5 Bft) NW 0,00 h 0 W/m 4,9 C -4,6 C 36,5 km/h (5 Bft)
10.01.2014 09:00 7,3 C 86 % 1007,5 hPa 0,0 l/m 31,4 km/h (5 Bft) W-NW 0,00 h 0 W/m 5,1 C -3,4 C 31,4 km/h (5 Bft)
10.01.2014 10:00 7,6 C 87 % 1008,3 hPa 0,0 l/m 31,8 km/h (5 Bft) W-NW 0,00 h 0 W/m 5,5 C -3,2 C 31,8 km/h (5 Bft)
10.01.2014 11:00 7,6 C 88 % 1008,5 hPa 0,0 l/m 31,8 km/h (5 Bft) W-NW 0,00 h 0 W/m 5,7 C -3,1 C 31,8 km/h (5 Bft)
10.01.2014 12:00 7,6 C 88 % 1008,5 hPa 0,0 l/m 31,7 km/h (5 Bft) W-NW 0,00 h 0 W/m 5,7 C -3,1 C 31,7 km/h (5 Bft)
10.01.2014 13:00 7,6 C 88 % 1009,0 hPa 0,0 l/m 33,6 km/h (5 Bft) W-NW 0,00 h 0 W/m 5,7 C -3,5 C 33,6 km/h (5 Bft)
10.01.2014 14:00 7,7 C 87 % 1009,5 hPa 0,0 l/m 32,5 km/h (5 Bft) W-NW 0,00 h 0 W/m 5,6 C -3,2 C 32,5 km/h (5 Bft)
10.01.2014 15:00 7,6 C 86 % 1009,8 hPa 0,0 l/m 31,3 km/h (5 Bft) W-NW 0,00 h 0 W/m 5,4 C -3,0 C 31,3 km/h (5 Bft)
10.01.2014 16:00 7,4 C 86 % 1010,5 hPa 0,0 l/m 26,7 km/h (4 Bft) W-NW 0,00 h 0 W/m 5,3 C -2,1 C 26,7 km/h (4 Bft)
10.01.2014 17:00 7,3 C 87 % 1010,3 hPa 0,0 l/m 24,7 km/h (4 Bft) W-NW 0,00 h 0 W/m 5,4 C -1,7 C 24,7 km/h (4 Bft)
10.01.2014 18:00 7,4 C 88 % 1010,5 hPa 0,3 l/m 23,6 km/h (4 Bft) W-NW 0,00 h 0 W/m 5,5 C -1,2 C 23,6 km/h (4 Bft)
10.01.2014 19:00 7,3 C 88 % 1010,5 hPa 0,0 l/m 28,5 km/h (5 Bft) W 0,00 h 0 W/m 5,4 C -2,7 C 28,5 km/h (5 Bft)
10.01.2014 20:00 6,9 C 87 % 1011,3 hPa 0,0 l/m 31,9 km/h (5 Bft) W-NW 0,00 h 0 W/m 4,9 C -4,1 C 31,9 km/h (5 Bft)
10.01.2014 21:00 6,7 C 88 % 1011,5 hPa 0,0 l/m 25,5 km/h (4 Bft) W 0,00 h 0 W/m 4,8 C -2,8 C 25,5 km/h (4 Bft)
10.01.2014 22:00 6,3 C 88 % 1011,5 hPa 0,0 l/m 28,1 km/h (5 Bft) W 0,00 h 0 W/m 4,5 C -4,1 C 28,1 km/h (5 Bft)
10.01.2014 23:00 6,3 C 89 % 1011,5 hPa 0,0 l/m 32,2 km/h (5 Bft) W 0,00 h 0 W/m 4,6 C -5,0 C 32,2 km/h (5 Bft)
11.01.2014 00:00 6,5 C 89 % 1011,5 hPa 0,0 l/m 31,0 km/h (5 Bft) W 0,00 h 0 W/m 4,8 C -4,5 C 31,0 km/h (5 Bft)
11.01.2014 01:00 6,9 C 89 % 1011,5 hPa 0,3 l/m 32,1 km/h (5 Bft) W 0,00 h 0 W/m 5,2 C -4,1 C 32,1 km/h (5 Bft)
11.01.2014 02:00 7,1 C 89 % 1010,8 hPa 0,0 l/m 30,9 km/h (5 Bft) W 0,00 h 0 W/m 5,4 C -3,6 C 30,9 km/h (5 Bft)
11.01.2014 03:00 7,3 C 88 % 1010,5 hPa 0,0 l/m 30,0 km/h (5 Bft) W 0,00 h 0 W/m 5,4 C -3,2 C 30,0 km/h (5 Bft)
11.01.2014 04:00 7,2 C 88 % 1010,3 hPa 0,0 l/m 29,9 km/h (5 Bft) W 0,00 h 0 W/m 5,3 C -3,2 C 29,9 km/h (5 Bft)
11.01.2014 05:00 7,2 C 88 % 1009,5 hPa 0,0 l/m 32,9 km/h (5 Bft) W 0,00 h 0 W/m 5,4 C -3,9 C 32,9 km/h (5 Bft)
11.01.2014 06:00 7,1 C 89 % 1009,5 hPa 0,0 l/m 32,2 km/h (5 Bft) W 0,00 h 0 W/m 5,4 C -3,9 C 32,2 km/h (5 Bft)
11.01.2014 07:00 7,0 C 89 % 1008,8 hPa 0,0 l/m 31,4 km/h (5 Bft) W 0,00 h 0 W/m 5,3 C -3,8 C 31,4 km/h (5 Bft)
11.01.2014 08:00 6,8 C 89 % 1008,5 hPa 0,0 l/m 31,7 km/h (5 Bft) W 0,00 h 0 W/m 5,1 C -4,2 C 31,7 km/h (5 Bft)
11.01.2014 09:00 6,7 C 89 % 1008,5 hPa 0,6 l/m 33,0 km/h (5 Bft) W 0,00 h 0 W/m 5,1 C -4,6 C 33,0 km/h (5 Bft)
11.01.2014 10:00 6,5 C 90 % 1008,5 hPa 0,6 l/m 35,4 km/h (5 Bft) W 0,00 h 0 W/m 5,0 C -5,4 C 35,4 km/h (5 Bft)
11.01.2014 11:00 6,4 C 90 % 1008,0 hPa 0,6 l/m 34,2 km/h (5 Bft) W 0,00 h 0 W/m 4,9 C -5,4 C 34,2 km/h (5 Bft)
11.01.2014 12:00 6,4 C 90 % 1007,0 hPa 0,3 l/m 36,1 km/h (5 Bft) W 0,00 h 0 W/m 4,8 C -5,8 C 36,1 km/h (5 Bft)
11.01.2014 13:00 6,2 C 91 % 1006,3 hPa 0,3 l/m 33,9 km/h (5 Bft) W 0,00 h 0 W/m 4,8 C -5,5 C 33,9 km/h (5 Bft)
11.01.2014 14:00 6,4 C 91 % 1005,8 hPa 0,3 l/m 41,9 km/h (6 Bft) N-NO 0,00 h 0 W/m 4,9 C -6,6 C 41,9 km/h (6 Bft)
11.01.2014 15:00 6,3 C 88 % 1007,3 hPa 0,0 l/m 27,7 km/h (5 Bft) N 0,00 h 0 W/m 4,5 C -3,8 C 27,7 km/h (5 Bft)
11.01.2014 16:00 6,4 C 86 % 1008,0 hPa 0,3 l/m 24,4 km/h (4 Bft) NW 0,00 h 0 W/m 4,3 C -2,7 C 24,4 km/h (4 Bft)
11.01.2014 17:00 6,4 C 83 % 1009,3 hPa 0,0 l/m 26,5 km/h (4 Bft) NW 0,00 h 0 W/m 3,8 C -3,4 C 26,5 km/h (4 Bft)
11.01.2014 18:00 6,4 C 82 % 1010,3 hPa 0,0 l/m 32,4 km/h (5 Bft) NW 0,00 h 0 W/m 3,6 C -4,9 C 32,4 km/h (5 Bft)
11.01.2014 19:00 6,5 C 80 % 1011,1 hPa 0,0 l/m 40,2 km/h (6 Bft) NW 0,00 h 0 W/m 3,4 C -6,2 C 40,2 km/h (6 Bft)
11.01.2014 20:00 5,8 C 79 % 1012,2 hPa 0,3 l/m 44,7 km/h (6 Bft) N-NW 0,00 h 0 W/m 2,4 C -8,0 C 44,7 km/h (6 Bft)
11.01.2014 21:00 5,5 C 82 % 1013,0 hPa 0,3 l/m 43,1 km/h (6 Bft) NW 0,00 h 0 W/m 2,7 C -8,3 C 43,1 km/h (6 Bft)
11.01.2014 22:00 5,8 C 82 % 1013,5 hPa 0,0 l/m 41,2 km/h (6 Bft) NW 0,00 h 0 W/m 2,9 C -7,5 C 41,2 km/h (6 Bft)
11.01.2014 23:00 6,0 C 80 % 1014,3 hPa 0,0 l/m 37,5 km/h (5 Bft) NW 0,00 h 0 W/m 2,9 C -6,6 C 37,5 km/h (5 Bft)
12.01.2014 00:00 5,9 C 80 % 1015,3 hPa 0,0 l/m 42,6 km/h (6 Bft) N-NW 0,00 h 0 W/m 2,8 C -7,5 C 42,6 km/h (6 Bft)
12.01.2014 01:00 5,6 C 82 % 1015,8 hPa 0,0 l/m 35,3 km/h (5 Bft) NW 0,00 h 0 W/m 2,8 C -6,6 C 35,3 km/h (5 Bft)
12.01.2014 02:00 5,4 C 83 % 1016,8 hPa 0,3 l/m 36,8 km/h (5 Bft) N 0,00 h 0 W/m 2,8 C -7,2 C 36,8 km/h (5 Bft)
12.01.2014 03:00 5,2 C 84 % 1017,5 hPa 0,6 l/m 32,1 km/h (5 Bft) NW 0,00 h 0 W/m 2,8 C -6,5 C 32,1 km/h (5 Bft)
12.01.2014 04:00 5,4 C 84 % 1017,5 hPa 0,3 l/m 29,7 km/h (5 Bft) N-NW 0,00 h 0 W/m 3,0 C -5,6 C 29,7 km/h (5 Bft)
12.01.2014 05:00 5,6 C 83 % 1018,5 hPa 0,0 l/m 31,6 km/h (5 Bft) NW 0,00 h 0 W/m 3,0 C -5,8 C 31,6 km/h (5 Bft)
12.01.2014 06:00 5,7 C 83 % 1018,5 hPa 0,3 l/m 31,4 km/h (5 Bft) NW 0,00 h 0 W/m 3,1 C -5,6 C 31,4 km/h (5 Bft)
12.01.2014 07:00 5,6 C 85 % 1018,5 hPa 0,0 l/m 29,9 km/h (5 Bft) NW 0,00 h 0 W/m 3,2 C -5,4 C 29,9 km/h (5 Bft)
12.01.2014 08:00 5,8 C 83 % 1018,5 hPa 0,0 l/m 30,7 km/h (5 Bft) NW 0,00 h 0 W/m 3,1 C -5,4 C 30,7 km/h (5 Bft)
12.01.2014 09:00 6,1 C 83 % 1019,3 hPa 0,0 l/m 29,4 km/h (5 Bft) NW 0,00 h 0 W/m 3,4 C -4,7 C 29,4 km/h (5 Bft)
12.01.2014 10:00 6,5 C 81 % 1019,5 hPa 0,0 l/m 26,1 km/h (4 Bft) NW 0,00 h 0 W/m 3,5 C -3,3 C 26,1 km/h (4 Bft)
12.01.2014 11:00 6,8 C 80 % 1019,5 hPa 0,0 l/m 29,1 km/h (5 Bft) NW 0,00 h 0 W/m 3,6 C -3,6 C 29,1 km/h (5 Bft)
12.01.2014 12:00 7,0 C 78 % 1019,5 hPa 0,0 l/m 27,9 km/h (5 Bft) NW 0,00 h 0 W/m 3,5 C -3,0 C 27,9 km/h (5 Bft)
12.01.2014 13:00 7,4 C 79 % 1019,5 hPa 0,0 l/m 24,2 km/h (4 Bft) NW 0,00 h 0 W/m 4,0 C -1,4 C 24,2 km/h (4 Bft)
12.01.2014 14:00 7,7 C 78 % 1019,5 hPa 0,0 l/m 23,6 km/h (4 Bft) NW 0,00 h 0 W/m 4,0 C -0,9 C 23,6 km/h (4 Bft)
12.01.2014 15:00 7,0 C 79 % 1019,5 hPa 0,0 l/m 19,0 km/h (3 Bft) NW 0,00 h 0 W/m 3,5 C -0,2 C 19,0 km/h (3 Bft)
12.01.2014 16:00 6,3 C 81 % 1018,5 hPa 0,0 l/m 14,3 km/h (3 Bft) NW 0,00 h 0 W/m 3,4 C 1,1 C 14,3 km/h (3 Bft)
12.01.2014 17:00 5,8 C 83 % 1018,5 hPa 0,0 l/m 7,9 km/h (2 Bft) W 0,00 h 0 W/m 3,2 C 4,5 C 7,9 km/h (2 Bft)
12.01.2014 18:00 5,5 C 85 % 1018,5 hPa 0,0 l/m 7,4 km/h (2 Bft) W 0,00 h 0 W/m 3,1 C 4,6 C 7,4 km/h (2 Bft)
12.01.2014 19:00 5,0 C 85 % 1017,8 hPa 0,0 l/m 3,7 km/h (1 Bft) W-SW 0,00 h 0 W/m 2,7 C 5,0 C 3,7 km/h (1 Bft)
12.01.2014 20:00 4,5 C 85 % 1017,5 hPa 0,0 l/m 5,5 km/h (2 Bft) W-SW 0,00 h 0 W/m 2,2 C 3,5 C 5,5 km/h (2 Bft)
12.01.2014 21:00 4,0 C 86 % 1016,8 hPa 0,0 l/m 6,1 km/h (2 Bft) S-SW 0,00 h 0 W/m 1,9 C 3,6 C 6,1 km/h (2 Bft)
12.01.2014 22:00 3,7 C 86 % 1016,5 hPa 0,0 l/m 5,8 km/h (2 Bft) S-SW 0,00 h 0 W/m 1,6 C 2,6 C 5,8 km/h (2 Bft)
12.01.2014 23:00 3,2 C 86 % 1015,5 hPa 0,0 l/m 7,1 km/h (2 Bft) S-SW 0,00 h 0 W/m 1,1 C 2,2 C 7,1 km/h (2 Bft)
Min-Datum _ 12.01.14 07.01.14 09.01.14 - 12.01.14 - - - 12.01.14 11.01.14 12.01.14
_ Min-Zeit 23:45 13:45 14:30 - 19:45 - - - 23:45 20:45 19:45
Minimum _ 3,1 C 77 % 993,5 hPa - 0,0 km/h (0 Bft) - - - 1,0 C -9,1 C 0,0 km/h (0 Bft)
Max-Datum _ 06.01.14 06.01.14 12.01.14 06.01.14 07.01.14 - 06.01.14 06.01.14 06.01.14 12.01.14 07.01.14
_ Max-Zeit 18:30 12:15 09:15 23:29 19:00 - 00:00 00:00 19:00 17:30 19:00
Maximum _ 11,5 C 91 % 1019,5 hPa 2,7 l/m 67,2 km/h
W-NW (8 Bft)
- 0,00 h 0 W/m 9,2 C 5,8 C 67,2 km/h
W-NW (8 Bft)
Durchschnitt _ 7,9 C 85 % 1007,5 hPa #24,9 l/m 30,8 km/h (5 Bft) W #0 min. 0 W/m 5,6 C -2,0 C 30,8 km/h (5 Bft)
copyright by Holger Just